sensor_id;sensor_type;location;lat;lon;timestamp;temperature;humidity
25991;DHT22;13779;-33.886;151.198;2023-12-20T00:01:06;20.10;99.90
25991;DHT22;13779;-33.886;151.198;2023-12-20T00:03:36;20.10;99.90
25991;DHT22;13779;-33.886;151.198;2023-12-20T00:06:09;20.00;99.90
25991;DHT22;13779;-33.886;151.198;2023-12-20T00:08:39;20.10;99.90
25991;DHT22;13779;-33.886;151.198;2023-12-20T00:11:09;20.10;99.90
25991;DHT22;13779;-33.886;151.198;2023-12-20T00:13:39;20.30;99.90
25991;DHT22;13779;-33.886;151.198;2023-12-20T00:16:10;20.40;99.90
25991;DHT22;13779;-33.886;151.198;2023-12-20T00:18:41;20.50;99.90
25991;DHT22;13779;-33.886;151.198;2023-12-20T00:21:12;20.50;99.90
25991;DHT22;13779;-33.886;151.198;2023-12-20T00:23:42;20.40;99.90
25991;DHT22;13779;-33.886;151.198;2023-12-20T00:26:13;20.40;99.90
25991;DHT22;13779;-33.886;151.198;2023-12-20T00:28:44;20.30;99.90
25991;DHT22;13779;-33.886;151.198;2023-12-20T00:31:14;20.30;99.90
25991;DHT22;13779;-33.886;151.198;2023-12-20T00:33:45;20.20;99.90
25991;DHT22;13779;-33.886;151.198;2023-12-20T00:36:17;20.10;99.90
25991;DHT22;13779;-33.886;151.198;2023-12-20T00:38:48;20.30;99.90
25991;DHT22;13779;-33.886;151.198;2023-12-20T00:41:19;20.10;99.90
25991;DHT22;13779;-33.886;151.198;2023-12-20T00:43:50;20.10;99.90
25991;DHT22;13779;-33.886;151.198;2023-12-20T00:46:21;20.10;99.90
25991;DHT22;13779;-33.886;151.198;2023-12-20T00:48:52;20.00;99.90
25991;DHT22;13779;-33.886;151.198;2023-12-20T00:51:23;20.10;99.90
25991;DHT22;13779;-33.886;151.198;2023-12-20T00:53:53;19.90;99.90
25991;DHT22;13779;-33.886;151.198;2023-12-20T00:56:24;19.90;99.90
25991;DHT22;13779;-33.886;151.198;2023-12-20T00:58:55;19.90;99.90
25991;DHT22;13779;-33.886;151.198;2023-12-20T01:01:25;19.90;99.90
25991;DHT22;13779;-33.886;151.198;2023-12-20T01:03:57;19.90;99.90
25991;DHT22;13779;-33.886;151.198;2023-12-20T01:06:28;19.80;99.90
25991;DHT22;13779;-33.886;151.198;2023-12-20T01:08:58;19.90;99.90
25991;DHT22;13779;-33.886;151.198;2023-12-20T01:11:30;19.70;99.90
25991;DHT22;13779;-33.886;151.198;2023-12-20T01:14:00;19.80;99.90
25991;DHT22;13779;-33.886;151.198;2023-12-20T01:16:31;19.80;99.90
25991;DHT22;13779;-33.886;151.198;2023-12-20T01:19:02;19.70;99.90
25991;DHT22;13779;-33.886;151.198;2023-12-20T01:21:32;19.60;99.90
25991;DHT22;13779;-33.886;151.198;2023-12-20T01:24:02;19.50;99.90
25991;DHT22;13779;-33.886;151.198;2023-12-20T01:26:33;19.60;99.90
25991;DHT22;13779;-33.886;151.198;2023-12-20T01:29:03;19.60;99.90
25991;DHT22;13779;-33.886;151.198;2023-12-20T01:31:33;19.60;99.90
25991;DHT22;13779;-33.886;151.198;2023-12-20T01:34:03;19.70;99.90
25991;DHT22;13779;-33.886;151.198;2023-12-20T01:36:34;19.70;99.90
25991;DHT22;13779;-33.886;151.198;2023-12-20T01:39:04;19.50;99.90
25991;DHT22;13779;-33.886;151.198;2023-12-20T01:41:40;19.50;99.90
25991;DHT22;13779;-33.886;151.198;2023-12-20T01:44:10;19.60;99.90
25991;DHT22;13779;-33.886;151.198;2023-12-20T01:46:40;19.60;99.90
25991;DHT22;13779;-33.886;151.198;2023-12-20T01:49:10;19.60;99.90
25991;DHT22;13779;-33.886;151.198;2023-12-20T01:51:42;19.80;99.90
25991;DHT22;13779;-33.886;151.198;2023-12-20T01:54:13;19.70;99.90
25991;DHT22;13779;-33.886;151.198;2023-12-20T01:56:43;19.70;99.90
25991;DHT22;13779;-33.886;151.198;2023-12-20T01:59:14;19.60;99.90
25991;DHT22;13779;-33.886;151.198;2023-12-20T02:01:44;19.50;99.90
25991;DHT22;13779;-33.886;151.198;2023-12-20T02:04:15;19.60;99.90
25991;DHT22;13779;-33.886;151.198;2023-12-20T02:06:46;19.80;99.90
25991;DHT22;13779;-33.886;151.198;2023-12-20T02:09:17;19.60;99.90
25991;DHT22;13779;-33.886;151.198;2023-12-20T02:11:49;19.50;99.90
25991;DHT22;13779;-33.886;151.198;2023-12-20T02:14:19;19.40;99.90
25991;DHT22;13779;-33.886;151.198;2023-12-20T02:16:49;19.40;99.90
25991;DHT22;13779;-33.886;151.198;2023-12-20T02:19:20;19.50;99.90
25991;DHT22;13779;-33.886;151.198;2023-12-20T02:22:08;19.50;99.90
25991;DHT22;13779;-33.886;151.198;2023-12-20T02:24:42;19.50;99.90
25991;DHT22;13779;-33.886;151.198;2023-12-20T02:27:15;19.50;99.90
25991;DHT22;13779;-33.886;151.198;2023-12-20T02:29:48;19.50;99.90
25991;DHT22;13779;-33.886;151.198;2023-12-20T02:32:23;19.40;99.90
25991;DHT22;13779;-33.886;151.198;2023-12-20T02:34:57;19.50;99.90
25991;DHT22;13779;-33.886;151.198;2023-12-20T02:37:27;19.40;99.90
25991;DHT22;13779;-33.886;151.198;2023-12-20T02:39:58;19.40;99.90
25991;DHT22;13779;-33.886;151.198;2023-12-20T02:42:28;19.40;99.90
25991;DHT22;13779;-33.886;151.198;2023-12-20T02:44:58;19.30;99.90
25991;DHT22;13779;-33.886;151.198;2023-12-20T02:47:28;19.30;99.90
25991;DHT22;13779;-33.886;151.198;2023-12-20T02:49:59;19.30;99.90
25991;DHT22;13779;-33.886;151.198;2023-12-20T02:52:30;19.30;99.90
25991;DHT22;13779;-33.886;151.198;2023-12-20T02:55:00;19.30;99.90
25991;DHT22;13779;-33.886;151.198;2023-12-20T02:57:30;19.30;99.90
25991;DHT22;13779;-33.886;151.198;2023-12-20T03:00:03;19.20;99.90
25991;DHT22;13779;-33.886;151.198;2023-12-20T03:02:33;19.20;99.90
25991;DHT22;13779;-33.886;151.198;2023-12-20T03:05:03;19.10;99.90
25991;DHT22;13779;-33.886;151.198;2023-12-20T03:07:34;19.10;99.90
25991;DHT22;13779;-33.886;151.198;2023-12-20T03:10:05;19.10;99.90
25991;DHT22;13779;-33.886;151.198;2023-12-20T03:12:42;19.20;99.90
25991;DHT22;13779;-33.886;151.198;2023-12-20T03:15:12;19.20;99.90
25991;DHT22;13779;-33.886;151.198;2023-12-20T03:17:42;19.20;99.90
25991;DHT22;13779;-33.886;151.198;2023-12-20T03:20:13;19.20;99.90
25991;DHT22;13779;-33.886;151.198;2023-12-20T03:22:43;19.20;99.90
25991;DHT22;13779;-33.886;151.198;2023-12-20T03:25:13;19.20;99.90
25991;DHT22;13779;-33.886;151.198;2023-12-20T03:27:44;19.20;99.90
25991;DHT22;13779;-33.886;151.198;2023-12-20T03:30:14;19.20;99.90
25991;DHT22;13779;-33.886;151.198;2023-12-20T03:32:45;19.20;99.90
25991;DHT22;13779;-33.886;151.198;2023-12-20T03:35:15;19.20;99.90
25991;DHT22;13779;-33.886;151.198;2023-12-20T03:37:45;19.30;99.90
25991;DHT22;13779;-33.886;151.198;2023-12-20T03:40:16;19.20;99.90
25991;DHT22;13779;-33.886;151.198;2023-12-20T03:42:46;19.30;99.90
25991;DHT22;13779;-33.886;151.198;2023-12-20T03:45:16;19.30;99.90
25991;DHT22;13779;-33.886;151.198;2023-12-20T03:47:48;19.30;99.90
25991;DHT22;13779;-33.886;151.198;2023-12-20T03:50:18;19.20;99.90
25991;DHT22;13779;-33.886;151.198;2023-12-20T03:52:52;19.30;99.90
25991;DHT22;13779;-33.886;151.198;2023-12-20T03:55:22;19.30;99.90
25991;DHT22;13779;-33.886;151.198;2023-12-20T03:57:52;19.30;99.90
25991;DHT22;13779;-33.886;151.198;2023-12-20T04:00:23;19.30;99.90
25991;DHT22;13779;-33.886;151.198;2023-12-20T04:02:55;19.30;99.90
25991;DHT22;13779;-33.886;151.198;2023-12-20T04:05:26;19.20;99.90
25991;DHT22;13779;-33.886;151.198;2023-12-20T04:08:01;19.00;99.90
25991;DHT22;13779;-33.886;151.198;2023-12-20T04:10:31;19.00;99.90
25991;DHT22;13779;-33.886;151.198;2023-12-20T04:13:03;19.10;99.90
25991;DHT22;13779;-33.886;151.198;2023-12-20T04:15:33;19.00;99.90
25991;DHT22;13779;-33.886;151.198;2023-12-20T04:18:04;18.90;99.90
25991;DHT22;13779;-33.886;151.198;2023-12-20T04:20:34;18.90;99.90
25991;DHT22;13779;-33.886;151.198;2023-12-20T04:23:05;18.90;99.90
25991;DHT22;13779;-33.886;151.198;2023-12-20T04:25:35;18.90;99.90
25991;DHT22;13779;-33.886;151.198;2023-12-20T04:28:06;18.90;99.90
25991;DHT22;13779;-33.886;151.198;2023-12-20T04:30:36;18.90;99.90
25991;DHT22;13779;-33.886;151.198;2023-12-20T04:33:06;18.90;99.90
25991;DHT22;13779;-33.886;151.198;2023-12-20T04:35:36;18.80;99.90
25991;DHT22;13779;-33.886;151.198;2023-12-20T04:38:07;18.90;99.90
25991;DHT22;13779;-33.886;151.198;2023-12-20T04:40:37;18.90;99.90
25991;DHT22;13779;-33.886;151.198;2023-12-20T04:43:08;19.00;99.90
25991;DHT22;13779;-33.886;151.198;2023-12-20T04:45:39;18.90;99.90
25991;DHT22;13779;-33.886;151.198;2023-12-20T04:48:09;18.90;99.90
25991;DHT22;13779;-33.886;151.198;2023-12-20T04:50:39;19.00;99.90
25991;DHT22;13779;-33.886;151.198;2023-12-20T04:53:10;18.90;99.90
25991;DHT22;13779;-33.886;151.198;2023-12-20T04:55:40;19.00;99.90
25991;DHT22;13779;-33.886;151.198;2023-12-20T04:58:10;19.00;99.90
25991;DHT22;13779;-33.886;151.198;2023-12-20T05:00:41;19.00;99.90
25991;DHT22;13779;-33.886;151.198;2023-12-20T05:03:11;19.10;99.90
25991;DHT22;13779;-33.886;151.198;2023-12-20T05:05:45;19.00;99.90
25991;DHT22;13779;-33.886;151.198;2023-12-20T05:08:15;19.00;99.90
25991;DHT22;13779;-33.886;151.198;2023-12-20T05:10:46;19.10;99.90
25991;DHT22;13779;-33.886;151.198;2023-12-20T05:13:16;19.00;99.90
25991;DHT22;13779;-33.886;151.198;2023-12-20T05:15:46;19.00;99.90
25991;DHT22;13779;-33.886;151.198;2023-12-20T05:18:17;18.90;99.90
25991;DHT22;13779;-33.886;151.198;2023-12-20T05:20:49;19.00;99.90
25991;DHT22;13779;-33.886;151.198;2023-12-20T05:23:22;18.90;99.90
25991;DHT22;13779;-33.886;151.198;2023-12-20T05:25:52;18.90;99.90
25991;DHT22;13779;-33.886;151.198;2023-12-20T05:28:23;18.90;99.90
25991;DHT22;13779;-33.886;151.198;2023-12-20T05:30:54;18.90;99.90
25991;DHT22;13779;-33.886;151.198;2023-12-20T05:33:24;18.80;99.90
25991;DHT22;13779;-33.886;151.198;2023-12-20T05:35:54;18.70;99.90
25991;DHT22;13779;-33.886;151.198;2023-12-20T05:38:25;18.80;99.90
25991;DHT22;13779;-33.886;151.198;2023-12-20T05:40:56;18.80;99.90
25991;DHT22;13779;-33.886;151.198;2023-12-20T05:43:26;18.80;99.90
25991;DHT22;13779;-33.886;151.198;2023-12-20T05:45:57;18.80;99.90
25991;DHT22;13779;-33.886;151.198;2023-12-20T05:48:28;18.90;99.90
25991;DHT22;13779;-33.886;151.198;2023-12-20T05:50:58;18.90;99.90
25991;DHT22;13779;-33.886;151.198;2023-12-20T05:53:29;19.00;99.90
25991;DHT22;13779;-33.886;151.198;2023-12-20T05:55:59;18.90;99.90
25991;DHT22;13779;-33.886;151.198;2023-12-20T05:58:30;18.90;99.90
25991;DHT22;13779;-33.886;151.198;2023-12-20T06:01:03;18.90;99.90
25991;DHT22;13779;-33.886;151.198;2023-12-20T06:03:34;18.80;99.90
25991;DHT22;13779;-33.886;151.198;2023-12-20T06:06:08;18.80;99.90
25991;DHT22;13779;-33.886;151.198;2023-12-20T06:08:41;18.80;99.90
25991;DHT22;13779;-33.886;151.198;2023-12-20T06:11:13;18.80;99.90
25991;DHT22;13779;-33.886;151.198;2023-12-20T06:13:46;18.80;99.90
25991;DHT22;13779;-33.886;151.198;2023-12-20T06:16:17;18.80;99.90
25991;DHT22;13779;-33.886;151.198;2023-12-20T06:18:48;18.80;99.90
25991;DHT22;13779;-33.886;151.198;2023-12-20T06:21:19;18.80;99.90
25991;DHT22;13779;-33.886;151.198;2023-12-20T06:23:50;18.80;99.90
25991;DHT22;13779;-33.886;151.198;2023-12-20T06:26:20;18.80;99.90
25991;DHT22;13779;-33.886;151.198;2023-12-20T06:28:51;18.70;99.90
25991;DHT22;13779;-33.886;151.198;2023-12-20T06:31:25;18.70;99.90
25991;DHT22;13779;-33.886;151.198;2023-12-20T06:33:55;18.70;99.90
25991;DHT22;13779;-33.886;151.198;2023-12-20T06:36:27;18.70;99.90
25991;DHT22;13779;-33.886;151.198;2023-12-20T06:38:57;18.60;99.90
25991;DHT22;13779;-33.886;151.198;2023-12-20T06:41:28;18.70;99.90
25991;DHT22;13779;-33.886;151.198;2023-12-20T06:43:59;18.70;99.90
25991;DHT22;13779;-33.886;151.198;2023-12-20T06:46:32;18.70;99.90
25991;DHT22;13779;-33.886;151.198;2023-12-20T06:49:06;18.80;99.90
25991;DHT22;13779;-33.886;151.198;2023-12-20T06:51:40;18.70;99.90
25991;DHT22;13779;-33.886;151.198;2023-12-20T06:54:10;18.60;99.90
25991;DHT22;13779;-33.886;151.198;2023-12-20T06:56:40;18.60;99.90
25991;DHT22;13779;-33.886;151.198;2023-12-20T06:59:11;18.60;99.90
25991;DHT22;13779;-33.886;151.198;2023-12-20T07:01:41;18.60;99.90
25991;DHT22;13779;-33.886;151.198;2023-12-20T07:04:11;18.50;99.90
25991;DHT22;13779;-33.886;151.198;2023-12-20T07:06:42;18.50;99.90
25991;DHT22;13779;-33.886;151.198;2023-12-20T07:09:14;18.50;99.90
25991;DHT22;13779;-33.886;151.198;2023-12-20T07:11:47;18.60;99.90
25991;DHT22;13779;-33.886;151.198;2023-12-20T07:14:18;18.70;99.90
25991;DHT22;13779;-33.886;151.198;2023-12-20T07:16:51;18.70;99.90
25991;DHT22;13779;-33.886;151.198;2023-12-20T07:19:31;18.80;99.90
25991;DHT22;13779;-33.886;151.198;2023-12-20T07:22:13;18.70;99.90
25991;DHT22;13779;-33.886;151.198;2023-12-20T07:24:50;18.60;99.90
25991;DHT22;13779;-33.886;151.198;2023-12-20T07:27:24;18.60;99.90
25991;DHT22;13779;-33.886;151.198;2023-12-20T07:29:55;18.60;99.90
25991;DHT22;13779;-33.886;151.198;2023-12-20T07:32:28;18.60;99.90
25991;DHT22;13779;-33.886;151.198;2023-12-20T07:35:09;18.60;99.90
25991;DHT22;13779;-33.886;151.198;2023-12-20T07:37:40;18.50;99.90
25991;DHT22;13779;-33.886;151.198;2023-12-20T07:40:15;18.40;99.90
25991;DHT22;13779;-33.886;151.198;2023-12-20T07:42:46;18.50;99.90
25991;DHT22;13779;-33.886;151.198;2023-12-20T07:45:23;18.70;99.90
25991;DHT22;13779;-33.886;151.198;2023-12-20T07:47:53;18.60;99.90
25991;DHT22;13779;-33.886;151.198;2023-12-20T07:50:32;18.60;99.90
25991;DHT22;13779;-33.886;151.198;2023-12-20T07:53:05;18.70;99.90
25991;DHT22;13779;-33.886;151.198;2023-12-20T07:55:35;18.70;99.90
25991;DHT22;13779;-33.886;151.198;2023-12-20T07:58:14;18.70;99.90
25991;DHT22;13779;-33.886;151.198;2023-12-20T08:00:44;18.70;99.90
25991;DHT22;13779;-33.886;151.198;2023-12-20T08:03:15;18.60;99.90
25991;DHT22;13779;-33.886;151.198;2023-12-20T08:05:45;18.60;99.90
25991;DHT22;13779;-33.886;151.198;2023-12-20T08:08:16;18.60;99.90
25991;DHT22;13779;-33.886;151.198;2023-12-20T08:10:46;18.60;99.90
25991;DHT22;13779;-33.886;151.198;2023-12-20T08:13:16;18.70;99.90
25991;DHT22;13779;-33.886;151.198;2023-12-20T08:15:58;18.60;99.90
25991;DHT22;13779;-33.886;151.198;2023-12-20T08:18:30;18.60;99.90
25991;DHT22;13779;-33.886;151.198;2023-12-20T08:21:07;18.60;99.90
25991;DHT22;13779;-33.886;151.198;2023-12-20T08:23:39;18.60;99.90
25991;DHT22;13779;-33.886;151.198;2023-12-20T08:26:09;18.60;99.90
25991;DHT22;13779;-33.886;151.198;2023-12-20T08:28:41;18.50;99.90
25991;DHT22;13779;-33.886;151.198;2023-12-20T08:31:15;18.50;99.90
25991;DHT22;13779;-33.886;151.198;2023-12-20T08:33:57;18.50;99.90
25991;DHT22;13779;-33.886;151.198;2023-12-20T08:36:28;18.50;99.90
25991;DHT22;13779;-33.886;151.198;2023-12-20T08:38:58;18.60;99.90
25991;DHT22;13779;-33.886;151.198;2023-12-20T08:41:30;18.60;99.90
25991;DHT22;13779;-33.886;151.198;2023-12-20T08:44:00;18.60;99.90
25991;DHT22;13779;-33.886;151.198;2023-12-20T08:46:30;18.60;99.90
25991;DHT22;13779;-33.886;151.198;2023-12-20T08:49:04;18.60;99.90
25991;DHT22;13779;-33.886;151.198;2023-12-20T08:51:34;18.50;99.90
25991;DHT22;13779;-33.886;151.198;2023-12-20T08:54:05;18.60;99.90
25991;DHT22;13779;-33.886;151.198;2023-12-20T08:56:40;18.60;99.90
25991;DHT22;13779;-33.886;151.198;2023-12-20T08:59:11;18.60;99.90
25991;DHT22;13779;-33.886;151.198;2023-12-20T09:01:41;18.60;99.90
25991;DHT22;13779;-33.886;151.198;2023-12-20T09:04:12;18.70;99.90
25991;DHT22;13779;-33.886;151.198;2023-12-20T09:06:45;18.60;99.90
25991;DHT22;13779;-33.886;151.198;2023-12-20T09:09:18;18.60;99.90
25991;DHT22;13779;-33.886;151.198;2023-12-20T09:11:52;18.60;99.90
25991;DHT22;13779;-33.886;151.198;2023-12-20T09:14:22;18.60;99.90
25991;DHT22;13779;-33.886;151.198;2023-12-20T09:16:52;18.60;99.90
25991;DHT22;13779;-33.886;151.198;2023-12-20T09:19:28;18.60;99.90
25991;DHT22;13779;-33.886;151.198;2023-12-20T09:21:59;18.50;99.90
25991;DHT22;13779;-33.886;151.198;2023-12-20T09:24:33;18.40;99.90
25991;DHT22;13779;-33.886;151.198;2023-12-20T09:27:04;18.40;99.90
25991;DHT22;13779;-33.886;151.198;2023-12-20T09:29:35;18.50;99.90
25991;DHT22;13779;-33.886;151.198;2023-12-20T09:32:05;18.50;99.90
25991;DHT22;13779;-33.886;151.198;2023-12-20T09:34:35;18.50;99.90
25991;DHT22;13779;-33.886;151.198;2023-12-20T09:37:07;18.50;99.90
25991;DHT22;13779;-33.886;151.198;2023-12-20T09:39:37;18.50;99.90
25991;DHT22;13779;-33.886;151.198;2023-12-20T09:42:12;18.50;99.90
25991;DHT22;13779;-33.886;151.198;2023-12-20T09:44:44;18.50;99.90
25991;DHT22;13779;-33.886;151.198;2023-12-20T09:47:16;18.50;99.90
25991;DHT22;13779;-33.886;151.198;2023-12-20T09:49:48;18.50;99.90
25991;DHT22;13779;-33.886;151.198;2023-12-20T09:52:19;18.40;99.90
25991;DHT22;13779;-33.886;151.198;2023-12-20T09:54:51;18.50;99.90
25991;DHT22;13779;-33.886;151.198;2023-12-20T09:57:22;18.50;99.90
25991;DHT22;13779;-33.886;151.198;2023-12-20T09:59:53;18.40;99.90
25991;DHT22;13779;-33.886;151.198;2023-12-20T10:02:25;18.40;99.90
25991;DHT22;13779;-33.886;151.198;2023-12-20T10:04:59;18.40;99.90
25991;DHT22;13779;-33.886;151.198;2023-12-20T10:07:30;18.40;99.90
25991;DHT22;13779;-33.886;151.198;2023-12-20T10:10:00;18.50;99.90
25991;DHT22;13779;-33.886;151.198;2023-12-20T10:12:31;18.50;99.90
25991;DHT22;13779;-33.886;151.198;2023-12-20T10:15:01;18.50;99.90
25991;DHT22;13779;-33.886;151.198;2023-12-20T10:17:32;18.50;99.90
25991;DHT22;13779;-33.886;151.198;2023-12-20T10:20:04;18.50;99.90
25991;DHT22;13779;-33.886;151.198;2023-12-20T10:22:39;18.50;99.90
25991;DHT22;13779;-33.886;151.198;2023-12-20T10:25:09;18.50;99.90
25991;DHT22;13779;-33.886;151.198;2023-12-20T10:27:39;18.60;99.90
25991;DHT22;13779;-33.886;151.198;2023-12-20T10:30:10;18.60;99.90
25991;DHT22;13779;-33.886;151.198;2023-12-20T10:32:40;18.60;99.90
25991;DHT22;13779;-33.886;151.198;2023-12-20T10:35:11;18.60;99.90
25991;DHT22;13779;-33.886;151.198;2023-12-20T10:37:41;18.50;99.90
25991;DHT22;13779;-33.886;151.198;2023-12-20T10:40:13;18.50;99.90
25991;DHT22;13779;-33.886;151.198;2023-12-20T10:42:43;18.40;99.90
25991;DHT22;13779;-33.886;151.198;2023-12-20T10:45:14;18.40;99.90
25991;DHT22;13779;-33.886;151.198;2023-12-20T10:47:47;18.40;99.90
25991;DHT22;13779;-33.886;151.198;2023-12-20T10:50:20;18.50;99.90
25991;DHT22;13779;-33.886;151.198;2023-12-20T10:52:51;18.50;99.90
25991;DHT22;13779;-33.886;151.198;2023-12-20T10:55:25;18.40;99.90
25991;DHT22;13779;-33.886;151.198;2023-12-20T10:58:01;18.40;99.90
25991;DHT22;13779;-33.886;151.198;2023-12-20T11:00:32;18.40;99.90
25991;DHT22;13779;-33.886;151.198;2023-12-20T11:03:02;18.40;99.90
25991;DHT22;13779;-33.886;151.198;2023-12-20T11:09:42;18.40;99.90
25991;DHT22;13779;-33.886;151.198;2023-12-20T11:12:49;18.50;99.90
25991;DHT22;13779;-33.886;151.198;2023-12-20T11:14:52;18.50;99.90
25991;DHT22;13779;-33.886;151.198;2023-12-20T11:17:25;18.50;99.90
25991;DHT22;13779;-33.886;151.198;2023-12-20T11:22:31;18.60;99.90
25991;DHT22;13779;-33.886;151.198;2023-12-20T11:25:09;18.60;99.90
25991;DHT22;13779;-33.886;151.198;2023-12-20T11:27:43;18.60;99.90
25991;DHT22;13779;-33.886;151.198;2023-12-20T11:30:21;18.60;99.90
25991;DHT22;13779;-33.886;151.198;2023-12-20T11:32:51;18.60;99.90
25991;DHT22;13779;-33.886;151.198;2023-12-20T11:35:22;18.70;99.90
25991;DHT22;13779;-33.886;151.198;2023-12-20T11:37:54;18.80;99.90
25991;DHT22;13779;-33.886;151.198;2023-12-20T11:40:24;18.70;99.90
25991;DHT22;13779;-33.886;151.198;2023-12-20T11:42:55;18.70;99.90
25991;DHT22;13779;-33.886;151.198;2023-12-20T11:45:26;18.80;99.90
25991;DHT22;13779;-33.886;151.198;2023-12-20T11:47:58;18.80;99.90
25991;DHT22;13779;-33.886;151.198;2023-12-20T11:50:29;18.80;99.90
25991;DHT22;13779;-33.886;151.198;2023-12-20T11:53:00;18.80;99.90
25991;DHT22;13779;-33.886;151.198;2023-12-20T11:55:31;18.70;99.90
25991;DHT22;13779;-33.886;151.198;2023-12-20T11:58:02;18.70;99.90
25991;DHT22;13779;-33.886;151.198;2023-12-20T12:00:34;18.70;99.90
25991;DHT22;13779;-33.886;151.198;2023-12-20T12:03:05;18.70;99.90
25991;DHT22;13779;-33.886;151.198;2023-12-20T12:05:36;18.60;99.90
25991;DHT22;13779;-33.886;151.198;2023-12-20T12:08:06;18.60;99.90
25991;DHT22;13779;-33.886;151.198;2023-12-20T12:10:38;18.60;99.90
25991;DHT22;13779;-33.886;151.198;2023-12-20T12:13:10;18.60;99.90
25991;DHT22;13779;-33.886;151.198;2023-12-20T12:15:41;18.60;99.90
25991;DHT22;13779;-33.886;151.198;2023-12-20T12:18:16;18.60;99.90
25991;DHT22;13779;-33.886;151.198;2023-12-20T12:20:46;18.60;99.90
25991;DHT22;13779;-33.886;151.198;2023-12-20T12:23:23;18.70;99.90
25991;DHT22;13779;-33.886;151.198;2023-12-20T12:25:55;18.70;99.90
25991;DHT22;13779;-33.886;151.198;2023-12-20T12:28:29;18.60;99.90
25991;DHT22;13779;-33.886;151.198;2023-12-20T12:31:01;18.60;99.90
25991;DHT22;13779;-33.886;151.198;2023-12-20T12:33:32;18.60;99.90
25991;DHT22;13779;-33.886;151.198;2023-12-20T12:36:02;18.60;99.90
25991;DHT22;13779;-33.886;151.198;2023-12-20T12:38:33;18.60;99.90
25991;DHT22;13779;-33.886;151.198;2023-12-20T12:41:04;18.60;99.90
25991;DHT22;13779;-33.886;151.198;2023-12-20T12:43:34;18.70;99.90
25991;DHT22;13779;-33.886;151.198;2023-12-20T12:46:04;18.60;99.90
25991;DHT22;13779;-33.886;151.198;2023-12-20T12:48:35;18.60;99.90
25991;DHT22;13779;-33.886;151.198;2023-12-20T12:51:05;18.60;99.90
25991;DHT22;13779;-33.886;151.198;2023-12-20T12:53:36;18.70;99.90
25991;DHT22;13779;-33.886;151.198;2023-12-20T12:56:07;18.60;99.90
25991;DHT22;13779;-33.886;151.198;2023-12-20T12:58:37;18.60;99.90
25991;DHT22;13779;-33.886;151.198;2023-12-20T13:01:07;18.60;99.90
25991;DHT22;13779;-33.886;151.198;2023-12-20T13:03:38;18.70;99.90
25991;DHT22;13779;-33.886;151.198;2023-12-20T13:06:08;18.80;99.90
25991;DHT22;13779;-33.886;151.198;2023-12-20T13:08:38;18.80;99.90
25991;DHT22;13779;-33.886;151.198;2023-12-20T13:11:09;18.80;99.90
25991;DHT22;13779;-33.886;151.198;2023-12-20T13:13:39;18.70;99.90
25991;DHT22;13779;-33.886;151.198;2023-12-20T13:16:10;18.80;99.90
25991;DHT22;13779;-33.886;151.198;2023-12-20T13:18:40;18.70;99.90
25991;DHT22;13779;-33.886;151.198;2023-12-20T13:21:12;18.70;99.90
25991;DHT22;13779;-33.886;151.198;2023-12-20T13:23:43;18.70;99.90
25991;DHT22;13779;-33.886;151.198;2023-12-20T13:26:14;18.70;99.90
25991;DHT22;13779;-33.886;151.198;2023-12-20T13:28:44;18.70;99.90
25991;DHT22;13779;-33.886;151.198;2023-12-20T13:31:14;18.70;99.90
25991;DHT22;13779;-33.886;151.198;2023-12-20T13:33:44;18.60;99.90
25991;DHT22;13779;-33.886;151.198;2023-12-20T13:36:15;18.60;99.90
25991;DHT22;13779;-33.886;151.198;2023-12-20T13:38:45;18.70;99.90
25991;DHT22;13779;-33.886;151.198;2023-12-20T13:41:15;18.60;99.90
25991;DHT22;13779;-33.886;151.198;2023-12-20T13:43:46;18.60;99.90
25991;DHT22;13779;-33.886;151.198;2023-12-20T13:46:16;18.60;99.90
25991;DHT22;13779;-33.886;151.198;2023-12-20T13:48:46;18.70;99.90
25991;DHT22;13779;-33.886;151.198;2023-12-20T13:51:16;18.60;99.90
25991;DHT22;13779;-33.886;151.198;2023-12-20T13:53:49;18.60;99.90
25991;DHT22;13779;-33.886;151.198;2023-12-20T13:56:19;18.60;99.90
25991;DHT22;13779;-33.886;151.198;2023-12-20T13:58:50;18.60;99.90
25991;DHT22;13779;-33.886;151.198;2023-12-20T14:01:21;18.60;99.90
25991;DHT22;13779;-33.886;151.198;2023-12-20T14:03:51;18.60;99.90
25991;DHT22;13779;-33.886;151.198;2023-12-20T14:06:21;18.60;99.90
25991;DHT22;13779;-33.886;151.198;2023-12-20T14:08:51;18.60;99.90
25991;DHT22;13779;-33.886;151.198;2023-12-20T14:11:22;18.70;99.90
25991;DHT22;13779;-33.886;151.198;2023-12-20T14:13:52;18.70;99.90
25991;DHT22;13779;-33.886;151.198;2023-12-20T14:16:27;18.70;99.90
25991;DHT22;13779;-33.886;151.198;2023-12-20T14:18:58;18.70;99.90
25991;DHT22;13779;-33.886;151.198;2023-12-20T14:21:28;18.60;99.90
25991;DHT22;13779;-33.886;151.198;2023-12-20T14:23:58;18.60;99.90
25991;DHT22;13779;-33.886;151.198;2023-12-20T14:26:29;18.60;99.90
25991;DHT22;13779;-33.886;151.198;2023-12-20T14:29:00;18.60;99.90
25991;DHT22;13779;-33.886;151.198;2023-12-20T14:31:31;18.60;99.90
25991;DHT22;13779;-33.886;151.198;2023-12-20T14:34:01;18.60;99.90
25991;DHT22;13779;-33.886;151.198;2023-12-20T14:36:34;18.60;99.90
25991;DHT22;13779;-33.886;151.198;2023-12-20T14:39:04;18.50;99.90
25991;DHT22;13779;-33.886;151.198;2023-12-20T14:41:35;18.60;99.90
25991;DHT22;13779;-33.886;151.198;2023-12-20T14:44:05;18.60;99.90
25991;DHT22;13779;-33.886;151.198;2023-12-20T14:46:36;18.60;99.90
25991;DHT22;13779;-33.886;151.198;2023-12-20T14:49:08;18.60;99.90
25991;DHT22;13779;-33.886;151.198;2023-12-20T14:51:38;18.60;99.90
25991;DHT22;13779;-33.886;151.198;2023-12-20T14:54:09;18.60;99.90
25991;DHT22;13779;-33.886;151.198;2023-12-20T14:56:40;18.60;99.90
25991;DHT22;13779;-33.886;151.198;2023-12-20T14:59:10;18.60;99.90
25991;DHT22;13779;-33.886;151.198;2023-12-20T15:01:40;18.50;99.90
25991;DHT22;13779;-33.886;151.198;2023-12-20T15:04:11;18.50;99.90
25991;DHT22;13779;-33.886;151.198;2023-12-20T15:06:42;18.50;99.90
25991;DHT22;13779;-33.886;151.198;2023-12-20T15:09:13;18.50;99.90
25991;DHT22;13779;-33.886;151.198;2023-12-20T15:11:43;18.50;99.90
25991;DHT22;13779;-33.886;151.198;2023-12-20T15:14:13;18.50;99.90
25991;DHT22;13779;-33.886;151.198;2023-12-20T15:16:49;18.50;99.90
25991;DHT22;13779;-33.886;151.198;2023-12-20T15:19:19;18.50;99.90